createdAt,value
2023-03-19T00:00:32.565Z,89.80
2023-03-19T00:03:00.441Z,87.80
2023-03-19T00:05:28.047Z,89.00
2023-03-19T00:07:55.666Z,88.80
2023-03-19T00:10:23.378Z,87.10
2023-03-19T00:12:50.744Z,89.00
2023-03-19T00:15:18.372Z,89.30
2023-03-19T00:17:45.750Z,89.80
2023-03-19T00:20:15.084Z,88.60
2023-03-19T00:22:42.618Z,89.30
2023-03-19T00:25:10.298Z,89.60
2023-03-19T00:27:38.737Z,89.20
2023-03-19T00:30:08.126Z,87.10
2023-03-19T00:32:36.737Z,87.10
2023-03-19T00:35:06.436Z,88.00
2023-03-19T00:37:35.136Z,87.90
2023-03-19T00:40:02.659Z,87.60
2023-03-19T00:42:31.389Z,90.30
2023-03-19T00:44:59.286Z,87.40
2023-03-19T00:47:27.930Z,90.50
2023-03-19T00:49:55.730Z,88.70
2023-03-19T00:52:23.618Z,89.20
2023-03-19T00:54:51.129Z,88.70
2023-03-19T00:57:19.560Z,87.70
2023-03-19T00:59:47.037Z,88.10
2023-03-19T01:02:14.540Z,87.30
2023-03-19T01:04:42.095Z,89.10
2023-03-19T01:07:10.629Z,89.50
2023-03-19T01:09:38.021Z,90.10
2023-03-19T01:12:05.647Z,89.50
2023-03-19T01:14:33.570Z,88.20
2023-03-19T01:17:01.312Z,88.80
2023-03-19T01:19:30.266Z,90.10
2023-03-19T01:21:57.913Z,90.40
2023-03-19T01:24:31.032Z,90.80
2023-03-19T01:26:58.839Z,89.50
2023-03-19T01:29:32.056Z,90.40
2023-03-19T01:32:07.477Z,90.30
2023-03-19T01:34:43.759Z,90.10
2023-03-19T01:37:14.576Z,90.80
2023-03-19T01:39:43.306Z,90.40
2023-03-19T01:42:14.339Z,90.60
2023-03-19T01:44:57.347Z,89.10
2023-03-19T01:47:41.136Z,90.60
2023-03-19T01:50:43.086Z,90.00
2023-03-19T01:53:32.610Z,90.00
2023-03-19T01:56:17.378Z,88.70
2023-03-19T01:59:09.498Z,89.00
2023-03-19T02:02:33.076Z,89.50
2023-03-19T02:05:12.395Z,89.20
2023-03-19T02:07:42.978Z,90.00
2023-03-19T02:10:14.280Z,88.20
2023-03-19T02:12:42.286Z,89.40
2023-03-19T02:15:10.632Z,89.90
2023-03-19T02:17:38.896Z,88.90
2023-03-19T02:20:27.144Z,89.40
2023-03-19T02:23:00.968Z,90.10
2023-03-19T02:25:41.842Z,90.20
2023-03-19T02:28:09.870Z,90.20
2023-03-19T02:30:38.381Z,89.30
2023-03-19T02:33:18.445Z,89.80
2023-03-19T02:35:49.325Z,90.10
2023-03-19T02:38:22.260Z,90.10
2023-03-19T02:41:09.374Z,90.10
2023-03-19T02:43:39.193Z,90.30
2023-03-19T02:46:11.182Z,90.00
2023-03-19T02:48:41.387Z,90.00
2023-03-19T02:51:08.941Z,90.40
2023-03-19T02:53:36.586Z,90.30
2023-03-19T02:56:04.056Z,91.20
2023-03-19T02:58:31.521Z,90.90
2023-03-19T03:00:59.106Z,91.10
2023-03-19T03:03:26.632Z,90.80
2023-03-19T03:05:54.188Z,91.10
2023-03-19T03:08:21.552Z,90.70
2023-03-19T03:10:48.995Z,90.40
2023-03-19T03:13:16.546Z,90.50
2023-03-19T03:15:44.105Z,90.60
2023-03-19T03:18:11.574Z,91.10
2023-03-19T03:20:39.063Z,91.50
2023-03-19T03:23:07.002Z,91.60
2023-03-19T03:25:36.018Z,91.60
2023-03-19T03:28:03.450Z,90.70
2023-03-19T03:30:31.072Z,91.00
2023-03-19T03:32:58.663Z,91.00
2023-03-19T03:35:27.349Z,91.80
2023-03-19T03:37:55.279Z,91.10
2023-03-19T03:40:22.713Z,90.70
2023-03-19T03:42:50.865Z,91.40
2023-03-19T03:45:18.925Z,90.50
2023-03-19T03:47:46.438Z,90.90
2023-03-19T03:50:13.986Z,90.50
2023-03-19T03:52:49.082Z,90.80
2023-03-19T03:55:18.924Z,93.40
2023-03-19T03:57:46.401Z,90.30
2023-03-19T04:00:14.298Z,91.30
2023-03-19T04:07:19.191Z,90.70
2023-03-19T04:09:50.918Z,90.20
2023-03-19T04:12:18.654Z,90.60
2023-03-19T04:14:48.242Z,90.70
2023-03-19T04:17:16.083Z,90.40
2023-03-19T04:24:15.343Z,90.90
2023-03-19T04:26:42.648Z,90.70
2023-03-19T04:29:10.886Z,90.40
2023-03-19T04:31:38.578Z,90.40
2023-03-19T04:34:06.522Z,90.90
2023-03-19T04:36:33.941Z,90.30
2023-03-19T04:39:01.871Z,90.50
2023-03-19T04:41:29.822Z,90.70
2023-03-19T04:44:10.140Z,90.70
2023-03-19T04:50:53.419Z,91.10
2023-03-19T04:53:20.945Z,91.50
2023-03-19T04:55:49.127Z,91.00
2023-03-19T04:58:18.938Z,90.70
2023-03-19T05:00:53.535Z,90.80
2023-03-19T05:03:57.820Z,90.90
2023-03-19T05:11:59.186Z,91.30
2023-03-19T05:19:00.270Z,91.50
2023-03-19T05:21:28.075Z,90.90
2023-03-19T05:23:57.225Z,91.20
2023-03-19T05:26:25.753Z,91.00
2023-03-19T05:33:37.500Z,91.60
2023-03-19T05:36:42.956Z,91.20
2023-03-19T05:39:15.524Z,91.70
2023-03-19T05:41:44.620Z,91.30
2023-03-19T05:44:16.726Z,91.30
2023-03-19T05:50:59.473Z,91.90
2023-03-19T05:53:39.579Z,91.60
2023-03-19T05:56:28.449Z,92.20
2023-03-19T05:59:15.541Z,91.30
2023-03-19T06:06:24.878Z,92.00
2023-03-19T06:08:53.571Z,91.40
2023-03-19T06:11:44.013Z,91.50
2023-03-19T06:16:19.048Z,91.70
2023-03-19T06:23:28.996Z,91.90
2023-03-19T06:25:56.371Z,91.20
2023-03-19T06:33:03.055Z,92.00
2023-03-19T06:36:16.798Z,91.60
2023-03-19T06:43:25.767Z,92.00
2023-03-19T06:55:26.547Z,92.20
2023-03-19T06:57:53.906Z,92.00
2023-03-19T07:00:21.497Z,91.30
2023-03-19T07:03:18.201Z,91.60
2023-03-19T07:15:26.370Z,92.00
2023-03-19T07:22:45.677Z,92.10
2023-03-19T07:29:17.681Z,92.00
2023-03-19T07:31:45.193Z,91.50
2023-03-19T07:34:12.607Z,91.40
2023-03-19T07:41:39.624Z,92.10
2023-03-19T07:49:01.838Z,92.10
2023-03-19T07:56:02.242Z,92.00
2023-03-19T07:58:29.673Z,91.50
2023-03-19T08:00:57.095Z,91.90
2023-03-19T08:04:45.081Z,91.50
2023-03-19T08:11:56.556Z,92.00
2023-03-19T08:19:02.263Z,91.80
2023-03-19T08:26:03.711Z,91.90
2023-03-19T08:33:01.934Z,91.90
2023-03-19T08:35:29.687Z,91.60
2023-03-19T08:37:57.318Z,91.40
2023-03-19T08:40:24.821Z,91.30
2023-03-19T09:01:55.218Z,91.50
2023-03-19T09:08:46.194Z,91.40
2023-03-19T09:11:14.552Z,91.20
2023-03-19T09:13:41.928Z,91.10
2023-03-19T09:16:09.752Z,91.30
2023-03-19T09:18:37.223Z,91.20
2023-03-19T09:21:04.706Z,91.40
2023-03-19T09:23:32.161Z,91.00
2023-03-19T09:25:59.534Z,90.80
2023-03-19T09:28:27.114Z,91.50
2023-03-19T09:30:54.585Z,90.90
2023-03-19T09:33:21.962Z,91.00
2023-03-19T09:35:52.598Z,91.20
2023-03-19T09:38:21.671Z,91.10
2023-03-19T09:41:20.785Z,91.10
2023-03-19T09:44:13.736Z,91.20
2023-03-19T09:46:50.337Z,91.60
2023-03-19T09:49:29.761Z,90.90
2023-03-19T09:52:03.597Z,91.30
2023-03-19T09:54:55.014Z,91.10
2023-03-19T09:57:22.571Z,90.90
2023-03-19T09:59:50.077Z,90.80
2023-03-19T10:02:37.681Z,91.60
2023-03-19T10:05:23.151Z,90.80
2023-03-19T10:08:14.828Z,90.40
2023-03-19T10:11:13.323Z,90.90
2023-03-19T10:14:38.166Z,91.00
2023-03-19T10:17:07.947Z,90.80
2023-03-19T10:19:43.439Z,90.90
2023-03-19T10:22:16.876Z,90.90
2023-03-19T10:24:46.909Z,91.60
2023-03-19T10:27:18.150Z,91.00
2023-03-19T10:29:45.628Z,90.90
2023-03-19T10:32:34.956Z,91.40
2023-03-19T10:35:16.481Z,92.20
2023-03-19T10:37:43.926Z,90.90
2023-03-19T10:40:44.931Z,90.80
2023-03-19T10:43:19.714Z,90.80
2023-03-19T10:45:49.165Z,90.40
2023-03-19T10:48:18.218Z,90.30
2023-03-19T10:50:45.704Z,90.40
2023-03-19T10:53:16.110Z,90.70
2023-03-19T10:56:03.861Z,90.70
2023-03-19T10:58:33.354Z,90.50
2023-03-19T11:01:07.670Z,90.40
2023-03-19T11:03:39.534Z,90.40
2023-03-19T11:06:29.556Z,90.50
2023-03-19T11:09:00.278Z,90.60
2023-03-19T11:11:37.622Z,90.50
2023-03-19T11:14:16.944Z,91.00
2023-03-19T11:17:09.468Z,91.30
2023-03-19T11:19:52.138Z,90.60
2023-03-19T11:22:36.296Z,92.30
2023-03-19T11:25:23.760Z,92.60
2023-03-19T11:28:26.573Z,91.20
2023-03-19T11:31:21.789Z,91.30
2023-03-19T11:34:23.836Z,90.10
2023-03-19T11:37:20.638Z,90.40
2023-03-19T11:39:52.431Z,90.20
2023-03-19T11:42:51.531Z,92.80
2023-03-19T11:45:35.959Z,90.00
2023-03-19T11:48:36.156Z,90.00
2023-03-19T11:51:18.317Z,90.20
2023-03-19T11:54:06.027Z,92.00
2023-03-19T11:56:47.022Z,90.10
2023-03-19T11:59:36.175Z,93.00
2023-03-19T12:02:51.829Z,93.40
2023-03-19T12:05:54.433Z,90.10
2023-03-19T12:08:56.813Z,93.70
2023-03-19T12:11:33.607Z,90.00
2023-03-19T12:14:15.981Z,90.30
2023-03-19T12:17:19.111Z,94.00
2023-03-19T12:19:49.704Z,89.90
2023-03-19T12:22:37.878Z,92.50
2023-03-19T12:25:20.789Z,90.00
2023-03-19T12:28:10.398Z,89.60
2023-03-19T12:30:52.360Z,89.50
2023-03-19T12:34:11.866Z,89.30
2023-03-19T12:36:55.532Z,90.00
2023-03-19T12:39:31.461Z,89.00
2023-03-19T12:45:31.948Z,90.70
2023-03-19T12:52:44.757Z,89.10
2023-03-19T12:55:44.880Z,90.00
2023-03-19T12:58:18.611Z,89.40
2023-03-19T13:01:00.178Z,93.10
2023-03-19T13:03:31.537Z,88.20
2023-03-19T13:06:06.457Z,88.20
2023-03-19T13:08:52.750Z,88.40
2023-03-19T13:11:39.267Z,87.50
2023-03-19T13:14:31.809Z,87.30
2023-03-19T13:17:06.393Z,86.40
2023-03-19T13:19:41.142Z,84.80
2023-03-19T13:22:13.634Z,88.20
2023-03-19T13:24:44.598Z,86.90
2023-03-19T13:27:24.430Z,86.50
2023-03-19T13:30:12.327Z,86.40
2023-03-19T13:33:07.376Z,84.20
2023-03-19T13:35:54.647Z,84.90
2023-03-19T13:38:27.827Z,85.40
2023-03-19T13:40:57.258Z,86.10
2023-03-19T13:43:30.723Z,86.00
2023-03-19T13:46:13.202Z,86.60
2023-03-19T13:48:46.900Z,85.50
2023-03-19T13:51:20.633Z,85.70
2023-03-19T13:54:14.416Z,85.70
2023-03-19T13:57:03.472Z,84.70
2023-03-19T13:59:36.890Z,85.20
2023-03-19T14:02:25.420Z,84.00
2023-03-19T14:05:02.459Z,86.80
2023-03-19T14:07:41.931Z,84.40
2023-03-19T14:10:28.498Z,85.00
2023-03-19T14:13:42.195Z,84.60
2023-03-19T14:16:21.825Z,83.70
2023-03-19T14:18:50.637Z,84.10
2023-03-19T14:21:36.428Z,84.80
2023-03-19T14:27:33.085Z,83.20
2023-03-19T14:30:11.092Z,82.90
2023-03-19T14:32:42.308Z,82.40
2023-03-19T14:35:16.987Z,83.70
2023-03-19T14:37:47.079Z,84.30
2023-03-19T14:40:41.142Z,84.70
2023-03-19T14:43:41.894Z,83.50
2023-03-19T14:46:19.018Z,83.40
2023-03-19T14:49:13.818Z,85.00
2023-03-19T14:51:50.347Z,83.70
2023-03-19T14:54:49.320Z,83.60
2023-03-19T14:57:36.218Z,83.90
2023-03-19T15:00:07.174Z,84.50
2023-03-19T15:03:02.671Z,84.20
2023-03-19T15:05:36.633Z,84.40
2023-03-19T15:08:13.229Z,87.10
2023-03-19T15:10:51.614Z,86.50
2023-03-19T15:13:40.796Z,83.50
2023-03-19T15:16:22.084Z,83.50
2023-03-19T15:18:52.761Z,86.10
2023-03-19T15:21:25.227Z,86.20
2023-03-19T15:23:52.980Z,83.50
2023-03-19T15:26:36.775Z,88.50
2023-03-19T15:29:04.711Z,84.80
2023-03-19T15:31:54.022Z,86.20
2023-03-19T15:34:30.241Z,84.20
2023-03-19T15:37:14.194Z,87.60
2023-03-19T15:39:49.608Z,83.90
2023-03-19T15:42:21.553Z,85.10
2023-03-19T15:45:02.528Z,87.10
2023-03-19T15:47:33.363Z,85.00
2023-03-19T15:50:04.062Z,84.90
2023-03-19T15:52:33.942Z,85.30
2023-03-19T15:55:02.600Z,84.20
2023-03-19T15:57:33.026Z,85.50
2023-03-19T16:00:01.431Z,84.40
2023-03-19T16:02:34.892Z,86.40
2023-03-19T16:05:21.124Z,84.90
2023-03-19T16:07:57.626Z,87.60
2023-03-19T16:10:44.288Z,85.20
2023-03-19T16:13:24.947Z,84.50
2023-03-19T16:16:22.255Z,89.50
2023-03-19T16:18:54.385Z,86.00
2023-03-19T16:21:44.400Z,84.50
2023-03-19T16:24:31.061Z,85.60
2023-03-19T16:27:03.072Z,85.40
2023-03-19T16:29:38.663Z,85.40
2023-03-19T16:32:14.378Z,85.50
2023-03-19T16:34:57.046Z,85.90
2023-03-19T16:37:35.143Z,84.60
2023-03-19T16:40:16.017Z,85.40
2023-03-19T16:42:51.220Z,85.90
2023-03-19T16:45:20.762Z,85.40
2023-03-19T16:47:53.910Z,85.40
2023-03-19T16:50:29.218Z,85.50
2023-03-19T16:52:58.414Z,85.80
2023-03-19T16:55:34.930Z,85.80
2023-03-19T16:58:25.935Z,88.60
2023-03-19T17:00:56.269Z,85.60
2023-03-19T17:03:25.629Z,91.20
2023-03-19T17:05:56.292Z,90.80
2023-03-19T17:08:26.252Z,87.20
2023-03-19T17:10:57.364Z,90.30
2023-03-19T17:13:34.185Z,88.90
2023-03-19T17:16:05.756Z,86.60
2023-03-19T17:18:36.453Z,89.00
2023-03-19T17:21:07.127Z,87.00
2023-03-19T17:23:34.970Z,90.90
2023-03-19T17:26:04.827Z,91.10
2023-03-19T17:28:32.574Z,90.90
2023-03-19T17:31:00.223Z,87.30
2023-03-19T17:33:30.184Z,89.20
2023-03-19T17:36:01.686Z,88.90
2023-03-19T17:38:33.250Z,88.00
2023-03-19T17:41:00.983Z,88.50
2023-03-19T17:43:28.607Z,91.60
2023-03-19T17:45:57.080Z,90.80
2023-03-19T17:48:36.123Z,90.80
2023-03-19T17:51:04.022Z,89.80
2023-03-19T17:53:32.103Z,89.60
2023-03-19T17:55:59.610Z,90.10
2023-03-19T17:58:27.133Z,90.30
2023-03-19T18:00:54.886Z,90.60
2023-03-19T18:03:24.813Z,91.40
2023-03-19T18:05:52.607Z,88.10
2023-03-19T18:08:23.844Z,90.80
2023-03-19T18:10:52.410Z,88.70
2023-03-19T18:13:25.140Z,91.20
2023-03-19T18:16:00.648Z,92.30
2023-03-19T18:18:28.340Z,90.40
2023-03-19T18:20:57.182Z,91.40
2023-03-19T18:23:25.499Z,91.40
2023-03-19T18:25:52.996Z,90.30
2023-03-19T18:28:21.814Z,90.50
2023-03-19T18:30:51.080Z,89.70
2023-03-19T18:33:27.149Z,91.10
2023-03-19T18:36:03.583Z,89.10
2023-03-19T18:38:32.938Z,90.60
2023-03-19T18:41:00.486Z,91.00
2023-03-19T18:43:29.299Z,91.20
2023-03-19T18:46:00.558Z,90.40
2023-03-19T18:48:33.034Z,90.50
2023-03-19T18:51:02.986Z,90.00
2023-03-19T18:53:30.586Z,91.80
2023-03-19T18:55:58.305Z,91.50
2023-03-19T18:58:29.148Z,90.60
2023-03-19T19:00:58.527Z,90.00
2023-03-19T19:03:28.729Z,90.00
2023-03-19T19:06:00.200Z,91.10
2023-03-19T19:08:33.555Z,90.00
2023-03-19T19:11:08.643Z,91.80
2023-03-19T19:13:46.221Z,91.00
2023-03-19T19:16:24.392Z,92.30
2023-03-19T19:18:53.431Z,89.90
2023-03-19T19:21:21.138Z,90.80
2023-03-19T19:23:48.797Z,89.50
2023-03-19T19:26:30.617Z,91.80
2023-03-19T19:29:01.142Z,91.00
2023-03-19T19:31:33.868Z,90.40
2023-03-19T19:34:01.872Z,91.10
2023-03-19T19:36:38.566Z,92.70
2023-03-19T19:39:06.296Z,91.00
2023-03-19T19:41:35.667Z,93.10
2023-03-19T19:44:14.641Z,92.00
2023-03-19T19:46:56.158Z,90.60
2023-03-19T19:49:29.097Z,92.20
2023-03-19T19:52:20.359Z,93.20
2023-03-19T19:54:53.352Z,90.00
2023-03-19T19:57:25.155Z,88.80
2023-03-19T19:59:56.451Z,91.40
2023-03-19T20:02:30.875Z,90.00
2023-03-19T20:05:04.163Z,91.80
2023-03-19T20:07:43.712Z,89.40
2023-03-19T20:10:12.973Z,89.90
2023-03-19T20:12:46.094Z,91.50
2023-03-19T20:15:16.399Z,91.50
2023-03-19T20:17:48.545Z,90.20
2023-03-19T20:20:20.857Z,90.50
2023-03-19T20:22:50.020Z,89.70
2023-03-19T20:25:19.739Z,90.50
2023-03-19T20:27:49.782Z,90.20
2023-03-19T20:30:29.892Z,90.20
2023-03-19T20:32:58.217Z,90.20
2023-03-19T20:35:30.740Z,90.50
2023-03-19T20:38:00.266Z,90.00
2023-03-19T20:40:51.501Z,90.10
2023-03-19T20:43:33.798Z,90.40
2023-03-19T20:46:04.558Z,90.60
2023-03-19T20:48:33.438Z,90.30
2023-03-19T20:51:01.885Z,90.30
2023-03-19T20:53:29.758Z,90.10
2023-03-19T20:55:57.452Z,90.30
2023-03-19T20:58:34.846Z,90.20
2023-03-19T21:01:02.882Z,90.40
2023-03-19T21:03:31.951Z,90.00
2023-03-19T21:06:05.208Z,90.60
2023-03-19T21:08:38.952Z,90.70
2023-03-19T21:11:11.451Z,90.70
2023-03-19T21:13:38.916Z,90.30
2023-03-19T21:16:06.921Z,90.20
2023-03-19T21:18:34.291Z,90.10
2023-03-19T21:21:01.928Z,90.30
2023-03-19T21:23:34.716Z,90.20
2023-03-19T21:26:19.263Z,90.40
2023-03-19T21:28:48.927Z,90.90
2023-03-19T21:31:19.193Z,90.70
2023-03-19T21:33:49.093Z,90.30
2023-03-19T21:36:16.945Z,90.40
2023-03-19T21:38:44.692Z,90.30
2023-03-19T21:41:23.761Z,90.40
2023-03-19T21:43:56.191Z,90.50
2023-03-19T21:46:27.176Z,90.90
2023-03-19T21:48:56.473Z,90.80
2023-03-19T21:51:25.285Z,90.70
2023-03-19T21:53:52.819Z,90.30
2023-03-19T21:56:33.363Z,90.30
2023-03-19T21:59:03.588Z,90.80
2023-03-19T22:01:31.079Z,90.90
2023-03-19T22:03:58.491Z,90.40
2023-03-19T22:06:26.141Z,90.50
2023-03-19T22:08:54.210Z,92.10
2023-03-19T22:11:30.710Z,91.50
2023-03-19T22:14:06.389Z,91.70
2023-03-19T22:16:34.254Z,90.50
2023-03-19T22:19:01.926Z,91.90
2023-03-19T22:21:46.017Z,91.10
2023-03-19T22:27:06.632Z,90.20
2023-03-19T22:29:34.596Z,90.70
2023-03-19T22:32:02.667Z,90.90
2023-03-19T22:34:30.298Z,92.70
2023-03-19T22:36:57.714Z,91.60
2023-03-19T22:39:25.250Z,90.70
2023-03-19T22:41:52.706Z,90.60
2023-03-19T22:44:28.192Z,91.40
2023-03-19T22:46:58.887Z,91.30
2023-03-19T22:49:28.209Z,90.90
2023-03-19T22:51:56.688Z,90.70
2023-03-19T22:54:26.295Z,90.90
2023-03-19T22:56:53.702Z,90.30
2023-03-19T22:59:21.646Z,92.20
2023-03-19T23:01:49.268Z,90.80
2023-03-19T23:04:21.450Z,91.30
2023-03-19T23:06:49.851Z,90.20
2023-03-19T23:09:20.240Z,90.70
2023-03-19T23:11:51.018Z,91.10
2023-03-19T23:14:29.108Z,90.60
2023-03-19T23:16:59.757Z,91.60
2023-03-19T23:19:32.810Z,91.60
2023-03-19T23:22:01.321Z,91.60
2023-03-19T23:24:30.576Z,90.90
2023-03-19T23:27:01.442Z,91.50
2023-03-19T23:29:42.007Z,91.90
2023-03-19T23:32:11.488Z,91.30
2023-03-19T23:34:54.056Z,92.00
2023-03-19T23:37:24.402Z,91.30
2023-03-19T23:39:51.889Z,91.20
2023-03-19T23:42:31.692Z,92.00
2023-03-19T23:45:03.638Z,91.90
2023-03-19T23:47:31.620Z,91.60
2023-03-19T23:49:59.185Z,91.40
2023-03-19T23:52:26.722Z,93.50
2023-03-19T23:54:54.285Z,92.30
2023-03-19T23:57:23.879Z,93.60
2023-03-19T23:59:53.356Z,91.60
